createdAt,value
2017-07-03T15:41:07.399Z,995.18
2017-07-03T15:42:07.350Z,995.15
2017-07-03T15:43:07.351Z,995.18
2017-07-03T15:44:07.355Z,995.19
2017-07-03T15:45:07.358Z,995.18
2017-07-03T15:46:07.362Z,995.19
2017-07-03T15:47:07.367Z,995.15
2017-07-03T15:48:07.372Z,995.11
2017-07-03T15:49:07.381Z,995.11
2017-07-03T15:50:07.386Z,995.06
2017-07-03T15:51:08.189Z,995.05
2017-07-03T15:52:07.393Z,995.1
2017-07-03T15:53:07.399Z,995.13
2017-07-03T15:54:07.405Z,995.11
2017-07-03T15:55:07.410Z,995.03
2017-07-03T15:56:07.426Z,995.04
2017-07-03T15:57:07.423Z,994.98
2017-07-03T15:58:07.431Z,994.98
2017-07-03T15:59:07.435Z,995.05
2017-07-03T16:00:07.442Z,995.02
2017-07-03T16:01:07.449Z,995.01
2017-07-03T16:02:07.465Z,995.03
2017-07-03T16:03:07.460Z,995.04
2017-07-03T16:04:07.467Z,995.03
2017-07-03T16:05:07.483Z,994.94
2017-07-03T16:06:07.479Z,994.94
2017-07-03T16:07:07.486Z,994.87
2017-07-03T16:08:07.493Z,994.89
2017-07-03T16:09:07.499Z,994.85
2017-07-03T16:10:07.505Z,994.81
2017-07-03T16:11:07.512Z,994.81
2017-07-03T16:12:07.519Z,994.82
2017-07-03T16:13:07.526Z,994.84
2017-07-03T16:14:07.530Z,994.8
2017-07-03T16:15:07.538Z,994.8
2017-07-03T16:16:07.543Z,994.86
2017-07-03T16:17:07.549Z,994.77
2017-07-03T16:18:07.556Z,994.76
2017-07-03T16:19:07.597Z,994.73
2017-07-03T16:20:07.570Z,994.76
2017-07-03T16:21:07.575Z,994.73
2017-07-03T16:22:07.581Z,994.72
2017-07-03T16:23:07.628Z,994.8
2017-07-03T16:24:07.593Z,994.74
2017-07-03T16:25:07.599Z,994.79
2017-07-03T16:26:07.610Z,994.73
2017-07-03T16:27:07.623Z,994.73
2017-07-03T16:28:07.632Z,994.78
2017-07-03T16:29:07.627Z,994.78
2017-07-03T16:30:07.646Z,994.74
2017-07-03T16:31:07.638Z,994.75
2017-07-03T16:32:07.643Z,994.71
2017-07-03T16:33:07.649Z,994.78
2017-07-03T16:34:07.657Z,994.78
2017-07-03T16:35:07.660Z,994.75
2017-07-03T16:36:07.668Z,994.72
2017-07-03T16:37:07.673Z,994.76
2017-07-03T16:38:07.686Z,994.85
2017-07-03T16:39:07.695Z,994.83
2017-07-03T16:40:07.698Z,994.79
2017-07-03T16:41:07.700Z,994.81
2017-07-03T16:42:07.703Z,994.83
2017-07-03T16:43:07.709Z,994.8
2017-07-03T16:44:07.716Z,994.76
2017-07-03T16:45:07.721Z,994.71
2017-07-03T16:46:07.726Z,994.72
2017-07-03T16:47:07.733Z,994.69
2017-07-03T16:48:07.739Z,994.72
2017-07-03T16:49:07.746Z,994.75
2017-07-03T16:50:07.815Z,994.74
2017-07-03T16:51:07.756Z,994.74
2017-07-03T16:52:07.763Z,994.66
2017-07-03T16:53:07.772Z,994.71
2017-07-03T16:54:07.782Z,994.66
2017-07-03T16:55:07.850Z,994.72
2017-07-03T16:56:07.786Z,994.7
2017-07-03T16:57:07.792Z,994.68
2017-07-03T16:58:07.798Z,994.73
2017-07-03T16:59:07.804Z,994.78
2017-07-03T17:00:07.873Z,994.7
2017-07-03T17:01:07.814Z,994.71
2017-07-03T17:02:07.822Z,994.72
2017-07-03T17:03:07.826Z,994.73
2017-07-03T17:04:07.833Z,994.74
2017-07-03T17:05:07.947Z,994.72
2017-07-03T17:06:07.849Z,994.73
2017-07-03T17:07:07.849Z,994.78
2017-07-03T17:08:07.852Z,994.73
2017-07-03T17:09:07.859Z,994.76
2017-07-03T17:10:07.987Z,994.78
2017-07-03T17:11:07.871Z,994.74
2017-07-03T17:12:07.874Z,994.72
2017-07-03T17:13:07.880Z,994.78
2017-07-03T17:14:07.887Z,994.75
2017-07-03T17:15:08.080Z,994.73
2017-07-03T17:16:07.897Z,994.69
2017-07-03T17:17:07.902Z,994.78
2017-07-03T17:18:07.907Z,994.75
2017-07-03T17:19:07.912Z,994.77
2017-07-03T17:20:07.960Z,994.73
2017-07-03T17:21:07.922Z,994.71
2017-07-03T17:22:07.930Z,994.76
2017-07-03T17:23:07.932Z,994.71
2017-07-03T17:24:07.939Z,994.7
2017-07-03T17:25:07.992Z,994.72
2017-07-03T17:26:07.948Z,994.72
2017-07-03T17:27:08.004Z,994.73
2017-07-03T17:28:07.958Z,994.7
2017-07-03T17:29:07.963Z,994.73
2017-07-03T17:30:08.054Z,994.67
2017-07-03T17:31:07.976Z,994.69
2017-07-03T17:32:07.980Z,994.71
2017-07-03T17:33:07.984Z,994.65
2017-07-03T17:34:07.995Z,994.71
2017-07-03T17:35:08.204Z,994.66
2017-07-03T17:36:07.999Z,994.72
2017-07-03T17:37:08.003Z,994.68
2017-07-03T17:38:08.009Z,994.67
2017-07-03T17:39:08.014Z,994.69
2017-07-03T17:40:08.120Z,994.7
2017-07-03T17:41:08.024Z,994.69
2017-07-03T17:42:08.187Z,994.7
2017-07-03T17:43:08.040Z,994.72
2017-07-03T17:44:08.046Z,994.7
2017-07-03T17:45:08.192Z,994.74
2017-07-03T17:46:08.049Z,994.76
2017-07-03T17:47:08.055Z,994.74
2017-07-03T17:48:08.118Z,994.7
2017-07-03T17:49:08.065Z,994.71
2017-07-03T17:50:08.303Z,994.69
2017-07-03T17:51:08.086Z,994.68
2017-07-03T17:52:08.122Z,994.67
2017-07-03T17:53:08.086Z,994.68
2017-07-03T17:54:08.091Z,994.65
2017-07-03T17:55:08.201Z,994.66
2017-07-03T17:56:08.102Z,994.69
2017-07-03T17:57:08.109Z,994.65
2017-07-03T17:58:08.113Z,994.63
2017-07-03T17:59:08.116Z,994.65
2017-07-03T18:01:08.127Z,994.67
2017-07-03T18:02:08.132Z,994.67
2017-07-03T18:03:08.150Z,994.71
2017-07-03T18:04:08.147Z,994.68
2017-07-03T18:05:08.374Z,994.7
2017-07-03T18:06:08.153Z,994.71
2017-07-03T18:07:08.158Z,994.68
2017-07-03T18:08:08.163Z,994.72
2017-07-03T18:09:08.168Z,994.67
2017-07-03T18:10:08.375Z,994.65
2017-07-03T18:11:08.177Z,994.64
2017-07-03T18:12:08.182Z,994.71
2017-07-03T18:13:08.189Z,994.67
2017-07-03T18:14:08.194Z,994.69
2017-07-03T18:15:08.360Z,994.69
2017-07-03T18:16:08.203Z,994.7
2017-07-03T18:17:08.209Z,994.73
2017-07-03T18:18:08.212Z,994.73
2017-07-03T18:19:08.217Z,994.71
2017-07-03T18:20:08.376Z,994.73
2017-07-03T18:21:08.226Z,994.76
2017-07-03T18:22:08.240Z,994.84
2017-07-03T18:23:08.238Z,994.78
2017-07-03T18:24:08.242Z,994.8
2017-07-03T18:25:08.369Z,994.84
2017-07-03T18:26:08.251Z,994.86
2017-07-03T18:27:08.260Z,994.87
2017-07-03T18:28:08.263Z,994.85
2017-07-03T18:29:08.265Z,994.88
2017-07-03T18:30:08.489Z,994.9
2017-07-03T18:31:08.275Z,994.89
2017-07-03T18:32:08.280Z,994.9
2017-07-03T18:33:08.286Z,994.93
2017-07-03T18:34:08.289Z,994.89
2017-07-03T18:35:08.485Z,994.89
2017-07-03T18:36:08.298Z,994.91
2017-07-03T18:37:08.318Z,994.87
2017-07-03T18:38:08.308Z,994.89
2017-07-03T18:39:08.313Z,994.86
2017-07-03T18:40:08.317Z,994.89
2017-07-03T18:41:08.321Z,994.89
2017-07-03T18:42:08.326Z,994.88
2017-07-03T18:43:09.184Z,994.91
2017-07-03T18:44:08.335Z,994.92
2017-07-03T18:45:08.436Z,994.9
2017-07-03T18:46:08.345Z,994.94
2017-07-03T18:47:08.348Z,994.93
2017-07-03T18:48:08.354Z,994.92
2017-07-03T18:49:08.362Z,994.92
2017-07-03T18:50:08.670Z,994.95
2017-07-03T18:51:08.368Z,994.94
2017-07-03T18:52:08.373Z,994.94
2017-07-03T18:53:08.378Z,994.92
2017-07-03T18:54:08.382Z,994.95
2017-07-03T18:55:08.610Z,994.96
2017-07-03T18:56:08.403Z,994.94
2017-07-03T18:57:08.398Z,994.95
2017-07-03T18:58:08.403Z,994.93
